sensor_id;sensor_type;location;lat;lon;timestamp;P1;durP1;ratioP1;P2;durP2;ratioP2
8885;SDS011;4479;51.162;13.906;2024-03-17T00:01:17;1.77;;;1.40;;
8885;SDS011;4479;51.162;13.906;2024-03-17T00:11:21;2.87;;;1.20;;
8885;SDS011;4479;51.162;13.906;2024-03-17T00:21:23;2.93;;;1.20;;
8885;SDS011;4479;51.162;13.906;2024-03-17T00:31:27;3.20;;;1.40;;
8885;SDS011;4479;51.162;13.906;2024-03-17T00:41:32;2.63;;;1.40;;
8885;SDS011;4479;51.162;13.906;2024-03-17T00:51:36;2.13;;;1.40;;
8885;SDS011;4479;51.162;13.906;2024-03-17T01:01:39;1.70;;;1.27;;
8885;SDS011;4479;51.162;13.906;2024-03-17T01:11:45;2.40;;;1.30;;
8885;SDS011;4479;51.162;13.906;2024-03-17T01:21:48;1.80;;;1.27;;
8885;SDS011;4479;51.162;13.906;2024-03-17T01:31:52;1.97;;;1.20;;
8885;SDS011;4479;51.162;13.906;2024-03-17T01:41:55;2.57;;;1.40;;
8885;SDS011;4479;51.162;13.906;2024-03-17T01:52:00;2.70;;;1.40;;
8885;SDS011;4479;51.162;13.906;2024-03-17T02:02:03;2.07;;;1.17;;
8885;SDS011;4479;51.162;13.906;2024-03-17T02:12:07;3.77;;;1.30;;
8885;SDS011;4479;51.162;13.906;2024-03-17T02:22:14;2.20;;;1.43;;
8885;SDS011;4479;51.162;13.906;2024-03-17T02:32:17;2.23;;;1.53;;
8885;SDS011;4479;51.162;13.906;2024-03-17T02:42:23;2.13;;;1.50;;
8885;SDS011;4479;51.162;13.906;2024-03-17T02:52:25;4.40;;;1.70;;
8885;SDS011;4479;51.162;13.906;2024-03-17T03:02:29;2.83;;;1.53;;
8885;SDS011;4479;51.162;13.906;2024-03-17T03:12:32;3.37;;;1.57;;
8885;SDS011;4479;51.162;13.906;2024-03-17T03:22:36;3.33;;;1.60;;
8885;SDS011;4479;51.162;13.906;2024-03-17T03:32:39;4.13;;;1.50;;
8885;SDS011;4479;51.162;13.906;2024-03-17T03:42:46;2.83;;;1.30;;
8885;SDS011;4479;51.162;13.906;2024-03-17T03:52:48;1.60;;;1.30;;
8885;SDS011;4479;51.162;13.906;2024-03-17T04:02:52;5.37;;;3.53;;
8885;SDS011;4479;51.162;13.906;2024-03-17T04:12:54;3.23;;;1.90;;
8885;SDS011;4479;51.162;13.906;2024-03-17T04:22:58;3.70;;;1.80;;
8885;SDS011;4479;51.162;13.906;2024-03-17T04:33:01;3.73;;;1.70;;
8885;SDS011;4479;51.162;13.906;2024-03-17T04:43:08;2.07;;;1.60;;
8885;SDS011;4479;51.162;13.906;2024-03-17T04:53:10;3.03;;;1.90;;
8885;SDS011;4479;51.162;13.906;2024-03-17T05:03:14;2.03;;;1.70;;
8885;SDS011;4479;51.162;13.906;2024-03-17T05:13:17;1.93;;;1.47;;
8885;SDS011;4479;51.162;13.906;2024-03-17T05:23:21;3.57;;;1.63;;
8885;SDS011;4479;51.162;13.906;2024-03-17T05:33:24;3.17;;;1.87;;
8885;SDS011;4479;51.162;13.906;2024-03-17T05:43:30;5.47;;;2.23;;
8885;SDS011;4479;51.162;13.906;2024-03-17T05:53:36;3.40;;;2.20;;
8885;SDS011;4479;51.162;13.906;2024-03-17T06:03:42;2.47;;;1.50;;
8885;SDS011;4479;51.162;13.906;2024-03-17T06:13:45;3.40;;;1.70;;
8885;SDS011;4479;51.162;13.906;2024-03-17T06:23:51;3.20;;;1.77;;
8885;SDS011;4479;51.162;13.906;2024-03-17T06:33:54;5.93;;;2.00;;
8885;SDS011;4479;51.162;13.906;2024-03-17T06:44:00;3.77;;;2.03;;
8885;SDS011;4479;51.162;13.906;2024-03-17T06:54:02;4.70;;;2.00;;
8885;SDS011;4479;51.162;13.906;2024-03-17T07:04:06;4.13;;;2.20;;
8885;SDS011;4479;51.162;13.906;2024-03-17T07:14:08;6.50;;;2.97;;
8885;SDS011;4479;51.162;13.906;2024-03-17T07:24:12;4.97;;;3.17;;
8885;SDS011;4479;51.162;13.906;2024-03-17T07:34:14;4.70;;;2.20;;
8885;SDS011;4479;51.162;13.906;2024-03-17T07:44:18;5.77;;;2.17;;
8885;SDS011;4479;51.162;13.906;2024-03-17T07:54:20;4.40;;;2.37;;
8885;SDS011;4479;51.162;13.906;2024-03-17T08:04:24;5.10;;;1.60;;
8885;SDS011;4479;51.162;13.906;2024-03-17T08:14:26;5.30;;;1.73;;
8885;SDS011;4479;51.162;13.906;2024-03-17T08:24:30;5.87;;;1.37;;
8885;SDS011;4479;51.162;13.906;2024-03-17T08:34:34;3.03;;;1.47;;
8885;SDS011;4479;51.162;13.906;2024-03-17T08:44:40;5.50;;;1.40;;
8885;SDS011;4479;51.162;13.906;2024-03-17T08:54:45;6.90;;;2.70;;
8885;SDS011;4479;51.162;13.906;2024-03-17T09:04:49;7.97;;;3.40;;
8885;SDS011;4479;51.162;13.906;2024-03-17T09:14:53;6.93;;;2.20;;
8885;SDS011;4479;51.162;13.906;2024-03-17T09:24:57;5.43;;;2.07;;
8885;SDS011;4479;51.162;13.906;2024-03-17T09:35:01;4.30;;;1.90;;
8885;SDS011;4479;51.162;13.906;2024-03-17T09:45:07;4.27;;;1.40;;
8885;SDS011;4479;51.162;13.906;2024-03-17T09:55:20;4.10;;;1.30;;
8885;SDS011;4479;51.162;13.906;2024-03-17T10:05:28;2.60;;;1.27;;
8885;SDS011;4479;51.162;13.906;2024-03-17T10:15:34;1.97;;;1.23;;
8885;SDS011;4479;51.162;13.906;2024-03-17T10:25:39;4.67;;;1.40;;
8885;SDS011;4479;51.162;13.906;2024-03-17T10:35:41;6.30;;;1.70;;
8885;SDS011;4479;51.162;13.906;2024-03-17T10:45:46;4.30;;;3.00;;
8885;SDS011;4479;51.162;13.906;2024-03-17T10:55:48;2.47;;;1.70;;
8885;SDS011;4479;51.162;13.906;2024-03-17T11:05:52;3.93;;;1.53;;
8885;SDS011;4479;51.162;13.906;2024-03-17T11:15:54;3.93;;;1.70;;
8885;SDS011;4479;51.162;13.906;2024-03-17T11:26:00;3.33;;;1.60;;
8885;SDS011;4479;51.162;13.906;2024-03-17T11:46:38;2.47;;;1.77;;
8885;SDS011;4479;51.162;13.906;2024-03-17T11:56:40;3.87;;;2.00;;
8885;SDS011;4479;51.162;13.906;2024-03-17T12:06:47;5.90;;;1.90;;
8885;SDS011;4479;51.162;13.906;2024-03-17T12:16:50;4.43;;;2.00;;
8885;SDS011;4479;51.162;13.906;2024-03-17T12:26:55;3.93;;;1.97;;
8885;SDS011;4479;51.162;13.906;2024-03-17T12:37:00;5.07;;;1.73;;
8885;SDS011;4479;51.162;13.906;2024-03-17T12:47:07;5.03;;;2.10;;
8885;SDS011;4479;51.162;13.906;2024-03-17T12:57:22;2.80;;;2.00;;
8885;SDS011;4479;51.162;13.906;2024-03-17T13:07:44;4.73;;;2.63;;
8885;SDS011;4479;51.162;13.906;2024-03-17T13:17:47;2.80;;;1.90;;
8885;SDS011;4479;51.162;13.906;2024-03-17T13:27:51;5.57;;;2.17;;
8885;SDS011;4479;51.162;13.906;2024-03-17T13:37:53;3.77;;;1.60;;
8885;SDS011;4479;51.162;13.906;2024-03-17T13:47:57;2.97;;;1.40;;
8885;SDS011;4479;51.162;13.906;2024-03-17T13:58:00;4.20;;;1.87;;
8885;SDS011;4479;51.162;13.906;2024-03-17T14:08:06;4.77;;;1.70;;
8885;SDS011;4479;51.162;13.906;2024-03-17T14:18:09;3.40;;;1.70;;
8885;SDS011;4479;51.162;13.906;2024-03-17T14:28:12;3.33;;;1.63;;
8885;SDS011;4479;51.162;13.906;2024-03-17T14:38:14;2.53;;;1.57;;
8885;SDS011;4479;51.162;13.906;2024-03-17T14:48:18;5.60;;;2.80;;
8885;SDS011;4479;51.162;13.906;2024-03-17T14:58:21;4.37;;;2.70;;
8885;SDS011;4479;51.162;13.906;2024-03-17T15:08:24;4.90;;;1.77;;
8885;SDS011;4479;51.162;13.906;2024-03-17T15:18:28;9.20;;;2.17;;
8885;SDS011;4479;51.162;13.906;2024-03-17T15:28:32;5.67;;;2.43;;
8885;SDS011;4479;51.162;13.906;2024-03-17T15:38:35;15.37;;;6.33;;
8885;SDS011;4479;51.162;13.906;2024-03-17T15:48:40;12.30;;;4.90;;
8885;SDS011;4479;51.162;13.906;2024-03-17T15:58:42;7.63;;;4.63;;
8885;SDS011;4479;51.162;13.906;2024-03-17T16:08:46;7.90;;;4.20;;
8885;SDS011;4479;51.162;13.906;2024-03-17T16:18:50;3.23;;;2.03;;
8885;SDS011;4479;51.162;13.906;2024-03-17T16:28:54;3.43;;;1.80;;
8885;SDS011;4479;51.162;13.906;2024-03-17T16:38:55;2.23;;;1.70;;
8885;SDS011;4479;51.162;13.906;2024-03-17T16:49:00;3.27;;;1.30;;
8885;SDS011;4479;51.162;13.906;2024-03-17T16:59:04;4.87;;;1.40;;
8885;SDS011;4479;51.162;13.906;2024-03-17T17:09:07;4.80;;;1.20;;
8885;SDS011;4479;51.162;13.906;2024-03-17T17:19:11;1.93;;;1.20;;
8885;SDS011;4479;51.162;13.906;2024-03-17T17:29:17;4.20;;;1.57;;
8885;SDS011;4479;51.162;13.906;2024-03-17T17:39:19;5.00;;;3.67;;
8885;SDS011;4479;51.162;13.906;2024-03-17T17:49:23;28.30;;;14.77;;
8885;SDS011;4479;51.162;13.906;2024-03-17T17:59:24;13.20;;;8.07;;
8885;SDS011;4479;51.162;13.906;2024-03-17T18:09:28;23.20;;;10.80;;
8885;SDS011;4479;51.162;13.906;2024-03-17T18:19:30;4.00;;;2.20;;
8885;SDS011;4479;51.162;13.906;2024-03-17T18:29:33;4.13;;;2.60;;
8885;SDS011;4479;51.162;13.906;2024-03-17T18:39:35;8.80;;;5.30;;
8885;SDS011;4479;51.162;13.906;2024-03-17T18:49:40;13.93;;;8.33;;
8885;SDS011;4479;51.162;13.906;2024-03-17T18:59:43;16.07;;;10.30;;
8885;SDS011;4479;51.162;13.906;2024-03-17T19:09:47;9.27;;;6.13;;
8885;SDS011;4479;51.162;13.906;2024-03-17T19:19:48;4.17;;;3.03;;
8885;SDS011;4479;51.162;13.906;2024-03-17T19:29:52;3.87;;;2.00;;
8885;SDS011;4479;51.162;13.906;2024-03-17T19:39:57;2.20;;;1.90;;
8885;SDS011;4479;51.162;13.906;2024-03-17T19:50:00;7.10;;;4.27;;
8885;SDS011;4479;51.162;13.906;2024-03-17T20:00:03;3.50;;;2.10;;
8885;SDS011;4479;51.162;13.906;2024-03-17T20:10:13;3.03;;;1.90;;
8885;SDS011;4479;51.162;13.906;2024-03-17T20:20:15;4.20;;;2.50;;
8885;SDS011;4479;51.162;13.906;2024-03-17T20:30:19;3.93;;;2.23;;
8885;SDS011;4479;51.162;13.906;2024-03-17T20:40:22;5.50;;;2.03;;
8885;SDS011;4479;51.162;13.906;2024-03-17T20:50:26;4.67;;;2.60;;
8885;SDS011;4479;51.162;13.906;2024-03-17T21:00:28;5.77;;;2.83;;
8885;SDS011;4479;51.162;13.906;2024-03-17T21:10:32;3.67;;;2.30;;
8885;SDS011;4479;51.162;13.906;2024-03-17T21:20:34;1.57;;;1.30;;
8885;SDS011;4479;51.162;13.906;2024-03-17T21:30:37;2.47;;;1.53;;
8885;SDS011;4479;51.162;13.906;2024-03-17T21:40:39;3.10;;;2.07;;
8885;SDS011;4479;51.162;13.906;2024-03-17T21:50:46;3.67;;;1.80;;
8885;SDS011;4479;51.162;13.906;2024-03-17T22:00:55;3.00;;;1.93;;
8885;SDS011;4479;51.162;13.906;2024-03-17T22:11:05;2.87;;;1.80;;
8885;SDS011;4479;51.162;13.906;2024-03-17T22:21:07;4.27;;;1.60;;
8885;SDS011;4479;51.162;13.906;2024-03-17T22:31:11;3.70;;;1.73;;
8885;SDS011;4479;51.162;13.906;2024-03-17T22:41:14;3.27;;;1.90;;
8885;SDS011;4479;51.162;13.906;2024-03-17T22:51:17;3.20;;;2.03;;
8885;SDS011;4479;51.162;13.906;2024-03-17T23:01:19;5.03;;;2.27;;
8885;SDS011;4479;51.162;13.906;2024-03-17T23:11:24;4.60;;;2.30;;
8885;SDS011;4479;51.162;13.906;2024-03-17T23:21:26;4.03;;;2.40;;
8885;SDS011;4479;51.162;13.906;2024-03-17T23:31:29;3.03;;;2.10;;
8885;SDS011;4479;51.162;13.906;2024-03-17T23:41:33;3.40;;;2.00;;
8885;SDS011;4479;51.162;13.906;2024-03-17T23:51:37;3.77;;;2.17;;
